createdAt,value
2022-12-10T05:00:33.659Z,14.50
2022-12-10T05:11:38.528Z,13.30
2022-12-10T05:22:38.415Z,15.50
2022-12-10T05:33:38.269Z,11.40
2022-12-10T05:44:38.140Z,10.40
2022-12-10T05:55:38.033Z,7.90
2022-12-10T06:06:37.899Z,8.60
2022-12-10T06:17:37.812Z,8.40
2022-12-10T06:28:37.653Z,10.60
2022-12-10T06:39:37.541Z,8.70
2022-12-10T06:50:37.413Z,8.40
2022-12-10T07:01:37.427Z,8.80
2022-12-10T07:12:37.184Z,8.30
2022-12-10T07:23:37.079Z,9.20
2022-12-10T07:34:36.957Z,8.40
2022-12-10T07:45:36.809Z,10.40
2022-12-10T07:56:36.717Z,8.30
2022-12-10T08:07:36.589Z,9.80
2022-12-10T08:18:36.518Z,8.60
2022-12-10T08:29:36.371Z,9.50
2022-12-10T08:40:36.280Z,8.90
2022-12-10T08:51:36.154Z,9.20
2022-12-10T09:02:36.014Z,9.70
2022-12-10T09:13:35.861Z,8.40
2022-12-10T09:24:35.722Z,9.00
2022-12-10T09:35:35.580Z,10.10
2022-12-10T09:46:35.504Z,10.20
2022-12-10T09:57:35.433Z,7.90
2022-12-10T10:08:35.432Z,9.40
2022-12-10T10:19:35.099Z,8.70
2022-12-10T10:30:35.003Z,9.60
2022-12-10T10:41:34.855Z,8.60
2022-12-10T10:52:34.716Z,9.50
2022-12-10T11:03:34.628Z,8.60
2022-12-10T11:14:39.831Z,10.20
2022-12-10T11:25:34.363Z,6.70
2022-12-10T11:36:34.238Z,7.70
2022-12-10T11:47:34.099Z,9.10
2022-12-10T11:58:33.972Z,9.20
2022-12-10T12:09:33.867Z,6.90
2022-12-10T12:20:33.732Z,9.50
2022-12-10T12:31:33.701Z,7.20
2022-12-10T12:42:33.527Z,9.10
2022-12-10T12:53:35.450Z,8.80
2022-12-10T13:04:33.233Z,7.80
2022-12-10T13:15:33.208Z,8.20
2022-12-10T13:26:33.007Z,9.80
2022-12-10T13:37:32.866Z,9.20
2022-12-10T13:48:32.731Z,8.40
2022-12-10T13:59:32.622Z,6.90
2022-12-10T14:10:32.512Z,9.60
2022-12-10T14:21:32.362Z,8.10
2022-12-10T14:32:32.441Z,8.50
2022-12-10T14:43:32.113Z,8.30
2022-12-10T14:54:31.995Z,10.50
2022-12-10T15:05:31.876Z,8.10
2022-12-10T15:16:31.821Z,9.20
2022-12-10T15:27:31.618Z,9.90
2022-12-10T15:38:31.506Z,8.70
2022-12-10T15:49:31.363Z,6.60
2022-12-10T16:00:31.241Z,8.20
2022-12-10T16:11:31.120Z,6.80
2022-12-10T16:22:31.001Z,9.10
2022-12-10T16:33:30.869Z,6.80
2022-12-10T16:44:30.743Z,9.30
2022-12-10T16:55:30.636Z,10.10
2022-12-10T17:06:30.499Z,10.40
2022-12-10T17:17:30.427Z,7.70
2022-12-10T17:28:30.252Z,7.80
2022-12-10T17:39:30.122Z,9.90
2022-12-10T17:50:32.250Z,10.70
2022-12-10T18:01:29.919Z,10.30
2022-12-10T18:12:29.759Z,10.50
2022-12-10T18:23:29.632Z,9.10
2022-12-10T18:34:29.615Z,8.70
2022-12-10T18:45:29.390Z,8.50
2022-12-10T18:56:29.272Z,9.90
2022-12-10T19:07:29.137Z,10.70
2022-12-10T19:18:29.067Z,8.30
2022-12-10T19:29:28.897Z,10.60
2022-12-10T19:40:28.782Z,11.80
2022-12-10T19:51:28.650Z,13.10
2022-12-10T20:02:28.571Z,11.50
2022-12-10T20:13:28.412Z,12.70
2022-12-10T20:24:28.411Z,13.70
2022-12-10T20:35:28.166Z,11.20
2022-12-10T20:46:28.100Z,12.90
2022-12-10T20:57:27.940Z,10.00
2022-12-10T21:08:27.908Z,11.50
2022-12-10T21:19:27.751Z,10.40
2022-12-10T21:30:27.566Z,13.10
2022-12-10T21:41:27.478Z,12.40
2022-12-10T21:52:27.328Z,16.10
